sensor_id;sensor_type;location;lat;lon;timestamp;pressure;altitude;pressure_sealevel;temperature;humidity
29371;BME280;16357;52.188;7.838;2022-12-05T00:03:47;101057.00;;;4.61;68.14
29371;BME280;16357;52.188;7.838;2022-12-05T00:06:15;101060.50;;;4.61;68.53
29371;BME280;16357;52.188;7.838;2022-12-05T00:08:42;101057.72;;;4.63;68.03
29371;BME280;16357;52.188;7.838;2022-12-05T00:11:15;101060.28;;;4.65;68.20
29371;BME280;16357;52.188;7.838;2022-12-05T00:13:43;101050.50;;;4.65;68.30
29371;BME280;16357;52.188;7.838;2022-12-05T00:16:11;101051.34;;;4.66;68.19
29371;BME280;16357;52.188;7.838;2022-12-05T00:18:38;101057.53;;;4.66;68.45
29371;BME280;16357;52.188;7.838;2022-12-05T00:21:05;101047.75;;;4.67;68.17
29371;BME280;16357;52.188;7.838;2022-12-05T00:23:32;101060.06;;;4.68;68.21
29371;BME280;16357;52.188;7.838;2022-12-05T00:26:03;101055.59;;;4.68;68.07
29371;BME280;16357;52.188;7.838;2022-12-05T00:28:31;101047.63;;;4.68;68.24
29371;BME280;16357;52.188;7.838;2022-12-05T00:31:09;101059.00;;;4.70;68.22
29371;BME280;16357;52.188;7.838;2022-12-05T00:33:37;101038.69;;;4.69;68.26
29371;BME280;16357;52.188;7.838;2022-12-05T00:36:05;101038.69;;;4.69;68.18
29371;BME280;16357;52.188;7.838;2022-12-05T00:38:32;101028.06;;;4.69;68.51
29371;BME280;16357;52.188;7.838;2022-12-05T00:41:06;101034.09;;;4.71;68.29
29371;BME280;16357;52.188;7.838;2022-12-05T00:43:33;101032.41;;;4.70;68.30
29371;BME280;16357;52.188;7.838;2022-12-05T00:46:05;101030.50;;;4.72;68.37
29371;BME280;16357;52.188;7.838;2022-12-05T00:48:32;101034.09;;;4.71;68.25
29371;BME280;16357;52.188;7.838;2022-12-05T00:51:08;101035.81;;;4.72;68.59
29371;BME280;16357;52.188;7.838;2022-12-05T00:53:35;101035.81;;;4.72;68.29
29371;BME280;16357;52.188;7.838;2022-12-05T00:56:04;101030.50;;;4.72;68.44
29371;BME280;16357;52.188;7.838;2022-12-05T00:58:31;101041.13;;;4.72;68.47
29371;BME280;16357;52.188;7.838;2022-12-05T01:01:29;101026.88;;;4.73;68.44
29371;BME280;16357;52.188;7.838;2022-12-05T01:04:05;101037.28;;;4.76;68.59
29371;BME280;16357;52.188;7.838;2022-12-05T01:06:31;101035.59;;;4.75;68.77
29371;BME280;16357;52.188;7.838;2022-12-05T01:08:58;101033.78;;;4.76;68.31
29371;BME280;16357;52.188;7.838;2022-12-05T01:11:25;101040.81;;;4.77;68.45
29371;BME280;16357;52.188;7.838;2022-12-05T01:13:52;101027.50;;;4.77;68.69
29371;BME280;16357;52.188;7.838;2022-12-05T01:16:20;101039.00;;;4.77;68.39
29371;BME280;16357;52.188;7.838;2022-12-05T01:18:47;101046.00;;;4.78;68.44
29371;BME280;16357;52.188;7.838;2022-12-05T01:21:14;101039.75;;;4.79;68.55
29371;BME280;16357;52.188;7.838;2022-12-05T01:23:40;101032.59;;;4.80;68.44
29371;BME280;16357;52.188;7.838;2022-12-05T01:26:09;101032.59;;;4.80;68.43
29371;BME280;16357;52.188;7.838;2022-12-05T01:28:36;101019.31;;;4.80;68.71
29371;BME280;16357;52.188;7.838;2022-12-05T01:31:05;101036.09;;;4.80;68.95
29371;BME280;16357;52.188;7.838;2022-12-05T01:33:33;101039.59;;;4.81;68.83
29371;BME280;16357;52.188;7.838;2022-12-05T01:36:01;101037.91;;;4.80;68.91
29371;BME280;16357;52.188;7.838;2022-12-05T01:38:28;101032.59;;;4.80;68.63
29371;BME280;16357;52.188;7.838;2022-12-05T01:40:59;101035.13;;;4.81;68.71
29371;BME280;16357;52.188;7.838;2022-12-05T01:43:26;101027.16;;;4.81;68.84
29371;BME280;16357;52.188;7.838;2022-12-05T01:45:53;101032.38;;;4.83;68.90
29371;BME280;16357;52.188;7.838;2022-12-05T01:48:39;101033.22;;;4.83;68.78
29371;BME280;16357;52.188;7.838;2022-12-05T01:51:06;101031.53;;;4.82;68.66
29371;BME280;16357;52.188;7.838;2022-12-05T01:53:32;101027.06;;;4.83;68.83
29371;BME280;16357;52.188;7.838;2022-12-05T01:55:59;101034.06;;;4.84;68.56
29371;BME280;16357;52.188;7.838;2022-12-05T01:58:30;101023.44;;;4.84;68.77
29371;BME280;16357;52.188;7.838;2022-12-05T02:00:57;101033.22;;;4.83;68.86
29371;BME280;16357;52.188;7.838;2022-12-05T02:03:24;101031.41;;;4.84;68.78
29371;BME280;16357;52.188;7.838;2022-12-05T02:05:52;101029.63;;;4.84;68.76
29371;BME280;16357;52.188;7.838;2022-12-05T02:08:19;101034.06;;;4.84;69.18
29371;BME280;16357;52.188;7.838;2022-12-05T02:10:51;101020.66;;;4.86;69.15
29371;BME280;16357;52.188;7.838;2022-12-05T02:13:33;101033.00;;;4.87;68.93
29371;BME280;16357;52.188;7.838;2022-12-05T02:16:29;101040.88;;;4.88;69.22
29371;BME280;16357;52.188;7.838;2022-12-05T02:30:39;101035.22;;;4.93;68.68
29371;BME280;16357;52.188;7.838;2022-12-05T02:33:22;101039.66;;;4.92;69.22
29371;BME280;16357;52.188;7.838;2022-12-05T02:38:35;101028.94;;;4.94;69.20
29371;BME280;16357;52.188;7.838;2022-12-05T02:41:18;101037.88;;;4.93;68.83
29371;BME280;16357;52.188;7.838;2022-12-05T02:43:51;101030.59;;;4.95;68.89
29371;BME280;16357;52.188;7.838;2022-12-05T02:46:22;101029.78;;;4.94;69.22
29371;BME280;16357;52.188;7.838;2022-12-05T02:48:53;101028.81;;;4.95;69.07
29371;BME280;16357;52.188;7.838;2022-12-05T02:51:22;101031.47;;;4.95;68.86
29371;BME280;16357;52.188;7.838;2022-12-05T02:53:52;101032.31;;;4.96;68.97
29371;BME280;16357;52.188;7.838;2022-12-05T02:56:22;101036.66;;;4.97;69.16
29371;BME280;16357;52.188;7.838;2022-12-05T02:58:52;101033.06;;;4.98;69.31
29371;BME280;16357;52.188;7.838;2022-12-05T03:01:22;101032.09;;;4.99;69.25
29371;BME280;16357;52.188;7.838;2022-12-05T03:03:50;101031.13;;;5.00;68.83
29371;BME280;16357;52.188;7.838;2022-12-05T03:06:24;101034.66;;;5.00;68.85
29371;BME280;16357;52.188;7.838;2022-12-05T03:09:09;101030.06;;;5.02;68.83
29371;BME280;16357;52.188;7.838;2022-12-05T03:11:46;101031.88;;;5.02;68.94
29371;BME280;16357;52.188;7.838;2022-12-05T03:14:18;101025.47;;;5.04;68.86
29371;BME280;16357;52.188;7.838;2022-12-05T03:16:51;101029.94;;;5.04;69.22
29371;BME280;16357;52.188;7.838;2022-12-05T03:19:33;101015.69;;;5.05;69.21
29371;BME280;16357;52.188;7.838;2022-12-05T03:22:08;101036.84;;;5.06;68.85
29371;BME280;16357;52.188;7.838;2022-12-05T03:24:37;101031.53;;;5.06;69.02
29371;BME280;16357;52.188;7.838;2022-12-05T03:32:26;101046.19;;;5.12;68.94
29371;BME280;16357;52.188;7.838;2022-12-05T03:37:45;101045.00;;;5.16;68.62
29371;BME280;16357;52.188;7.838;2022-12-05T03:43:46;101041.66;;;5.25;68.99
29371;BME280;16357;52.188;7.838;2022-12-05T03:49:12;101051.09;;;5.30;68.76
29371;BME280;16357;52.188;7.838;2022-12-05T03:51:52;101051.72;;;5.33;68.87
29371;BME280;16357;52.188;7.838;2022-12-05T03:54:27;101044.47;;;5.35;68.32
29371;BME280;16357;52.188;7.838;2022-12-05T03:57:00;101047.88;;;5.37;68.62
29371;BME280;16357;52.188;7.838;2022-12-05T03:59:49;101053.91;;;5.39;68.29
29371;BME280;16357;52.188;7.838;2022-12-05T04:02:24;101054.63;;;5.41;68.30
29371;BME280;16357;52.188;7.838;2022-12-05T04:04:59;101049.31;;;5.41;68.61
29371;BME280;16357;52.188;7.838;2022-12-05T04:07:29;101057.19;;;5.43;68.36
29371;BME280;16357;52.188;7.838;2022-12-05T04:10:02;101056.22;;;5.44;68.25
29371;BME280;16357;52.188;7.838;2022-12-05T04:12:32;101049.94;;;5.45;68.28
29371;BME280;16357;52.188;7.838;2022-12-05T04:15:07;101045.47;;;5.45;67.99
29371;BME280;16357;52.188;7.838;2022-12-05T04:17:44;101050.81;;;5.45;68.53
29371;BME280;16357;52.188;7.838;2022-12-05T04:20:35;101042.69;;;5.47;68.40
29371;BME280;16357;52.188;7.838;2022-12-05T04:23:22;101043.66;;;5.46;68.21
29371;BME280;16357;52.188;7.838;2022-12-05T04:26:09;101047.16;;;5.46;68.04
29371;BME280;16357;52.188;7.838;2022-12-05T04:28:48;101043.66;;;5.46;68.43
29371;BME280;16357;52.188;7.838;2022-12-05T04:31:21;101048.97;;;5.46;68.66
29371;BME280;16357;52.188;7.838;2022-12-05T04:33:53;101054.16;;;5.47;68.34
29371;BME280;16357;52.188;7.838;2022-12-05T04:36:36;101047.06;;;5.48;68.53
29371;BME280;16357;52.188;7.838;2022-12-05T04:39:09;101046.94;;;5.49;68.38
29371;BME280;16357;52.188;7.838;2022-12-05T04:41:48;101049.47;;;5.51;68.42
29371;BME280;16357;52.188;7.838;2022-12-05T04:44:17;101039.78;;;5.50;68.53
29371;BME280;16357;52.188;7.838;2022-12-05T04:46:46;101047.75;;;5.50;67.96
29371;BME280;16357;52.188;7.838;2022-12-05T04:49:19;101049.59;;;5.49;68.12
29371;BME280;16357;52.188;7.838;2022-12-05T04:51:49;101057.72;;;5.48;68.30
29371;BME280;16357;52.188;7.838;2022-12-05T04:54:28;101048.84;;;5.47;67.99
29371;BME280;16357;52.188;7.838;2022-12-05T04:57:06;101046.09;;;5.49;68.09
29371;BME280;16357;52.188;7.838;2022-12-05T04:59:35;101061.06;;;5.50;68.40
29371;BME280;16357;52.188;7.838;2022-12-05T05:02:09;101048.75;;;5.49;68.44
29371;BME280;16357;52.188;7.838;2022-12-05T05:04:44;101054.81;;;5.51;68.41
29371;BME280;16357;52.188;7.838;2022-12-05T05:07:12;101047.75;;;5.50;68.04
29371;BME280;16357;52.188;7.838;2022-12-05T05:09:39;101039.78;;;5.50;67.98
29371;BME280;16357;52.188;7.838;2022-12-05T05:12:06;101054.81;;;5.51;68.03
29371;BME280;16357;52.188;7.838;2022-12-05T05:14:33;101053.84;;;5.52;68.11
29371;BME280;16357;52.188;7.838;2022-12-05T05:16:59;101056.50;;;5.52;68.44
29371;BME280;16357;52.188;7.838;2022-12-05T05:19:26;101053.72;;;5.54;68.35
29371;BME280;16357;52.188;7.838;2022-12-05T05:21:52;101054.56;;;5.54;68.01
29371;BME280;16357;52.188;7.838;2022-12-05T05:24:19;101055.31;;;5.56;67.83
29371;BME280;16357;52.188;7.838;2022-12-05T05:26:46;101061.47;;;5.57;68.00
29371;BME280;16357;52.188;7.838;2022-12-05T05:29:20;101058.72;;;5.58;68.35
29371;BME280;16357;52.188;7.838;2022-12-05T05:31:47;101063.06;;;5.59;67.72
29371;BME280;16357;52.188;7.838;2022-12-05T05:34:13;101069.22;;;5.60;68.29
29371;BME280;16357;52.188;7.838;2022-12-05T05:36:41;101069.22;;;5.60;68.18
29371;BME280;16357;52.188;7.838;2022-12-05T05:39:12;101073.47;;;5.62;67.82
29371;BME280;16357;52.188;7.838;2022-12-05T05:41:38;101080.47;;;5.63;68.11
29371;BME280;16357;52.188;7.838;2022-12-05T05:44:05;101073.22;;;5.65;67.73
29371;BME280;16357;52.188;7.838;2022-12-05T05:46:34;101067.91;;;5.65;68.10
29371;BME280;16357;52.188;7.838;2022-12-05T05:49:01;101072.28;;;5.66;67.75
29371;BME280;16357;52.188;7.838;2022-12-05T05:51:27;101072.13;;;5.68;68.05
29371;BME280;16357;52.188;7.838;2022-12-05T05:53:56;101072.97;;;5.68;67.58
29371;BME280;16357;52.188;7.838;2022-12-05T05:56:23;101069.38;;;5.69;67.70
29371;BME280;16357;52.188;7.838;2022-12-05T05:58:54;101075.44;;;5.71;67.88
29371;BME280;16357;52.188;7.838;2022-12-05T06:01:22;101066.72;;;5.69;67.50
29371;BME280;16357;52.188;7.838;2022-12-05T06:03:48;101075.66;;;5.68;67.65
29371;BME280;16357;52.188;7.838;2022-12-05T06:06:16;101071.31;;;5.67;67.63
29371;BME280;16357;52.188;7.838;2022-12-05T06:08:43;101072.97;;;5.68;67.48
29371;BME280;16357;52.188;7.838;2022-12-05T06:11:21;101072.88;;;5.70;67.54
29371;BME280;16357;52.188;7.838;2022-12-05T06:13:55;101071.91;;;5.71;67.43
29371;BME280;16357;52.188;7.838;2022-12-05T06:16:22;101070.22;;;5.70;67.29
29371;BME280;16357;52.188;7.838;2022-12-05T06:18:50;101075.44;;;5.71;67.53
29371;BME280;16357;52.188;7.838;2022-12-05T06:21:16;101071.06;;;5.70;67.69
29371;BME280;16357;52.188;7.838;2022-12-05T06:23:43;101077.13;;;5.72;67.36
29371;BME280;16357;52.188;7.838;2022-12-05T06:26:18;101068.28;;;5.72;67.60
29371;BME280;16357;52.188;7.838;2022-12-05T06:28:44;101068.28;;;5.72;67.53
29371;BME280;16357;52.188;7.838;2022-12-05T06:31:22;101068.28;;;5.72;67.28
29371;BME280;16357;52.188;7.838;2022-12-05T06:33:49;101078.22;;;5.70;67.01
29371;BME280;16357;52.188;7.838;2022-12-05T06:36:18;101077.38;;;5.69;67.36
29371;BME280;16357;52.188;7.838;2022-12-05T06:38:45;101077.47;;;5.68;67.45
29371;BME280;16357;52.188;7.838;2022-12-05T06:41:17;101078.31;;;5.68;67.70
29371;BME280;16357;52.188;7.838;2022-12-05T06:43:45;101087.28;;;5.67;67.78
29371;BME280;16357;52.188;7.838;2022-12-05T06:46:12;101083.63;;;5.68;67.70
29371;BME280;16357;52.188;7.838;2022-12-05T06:48:39;101087.16;;;5.69;67.79
29371;BME280;16357;52.188;7.838;2022-12-05T06:51:08;101088.00;;;5.69;68.02
29371;BME280;16357;52.188;7.838;2022-12-05T06:53:35;101082.56;;;5.71;68.21
29371;BME280;16357;52.188;7.838;2022-12-05T06:56:03;101082.44;;;5.72;68.15
29371;BME280;16357;52.188;7.838;2022-12-05T06:58:30;101091.19;;;5.75;68.03
29371;BME280;16357;52.188;7.838;2022-12-05T07:00:57;101089.13;;;5.78;67.81
29371;BME280;16357;52.188;7.838;2022-12-05T07:03:42;101090.81;;;5.79;67.58
29371;BME280;16357;52.188;7.838;2022-12-05T07:06:09;101089.97;;;5.79;67.73
29371;BME280;16357;52.188;7.838;2022-12-05T07:08:37;101089.13;;;5.78;67.65
29371;BME280;16357;52.188;7.838;2022-12-05T07:11:04;101093.59;;;5.78;67.55
29371;BME280;16357;52.188;7.838;2022-12-05T07:13:30;101091.69;;;5.80;67.38
29371;BME280;16357;52.188;7.838;2022-12-05T07:15:57;101090.94;;;5.78;67.98
29371;BME280;16357;52.188;7.838;2022-12-05T07:18:25;101097.00;;;5.80;68.01
29371;BME280;16357;52.188;7.838;2022-12-05T07:21:05;101101.34;;;5.81;67.50
29371;BME280;16357;52.188;7.838;2022-12-05T07:23:39;101099.66;;;5.80;67.72
29371;BME280;16357;52.188;7.838;2022-12-05T07:26:07;101104.25;;;5.78;67.70
29371;BME280;16357;52.188;7.838;2022-12-05T07:28:34;101113.06;;;5.78;67.82
29371;BME280;16357;52.188;7.838;2022-12-05T07:31:04;101110.53;;;5.77;67.83
29371;BME280;16357;52.188;7.838;2022-12-05T07:33:31;101108.81;;;5.76;67.98
29371;BME280;16357;52.188;7.838;2022-12-05T07:36:01;101112.34;;;5.76;67.58
29371;BME280;16357;52.188;7.838;2022-12-05T07:38:29;101115.00;;;5.76;67.70
29371;BME280;16357;52.188;7.838;2022-12-05T07:40:55;101106.16;;;5.76;67.85
29371;BME280;16357;52.188;7.838;2022-12-05T07:43:22;101118.41;;;5.78;67.90
29371;BME280;16357;52.188;7.838;2022-12-05T07:45:49;101114.88;;;5.78;68.08
29371;BME280;16357;52.188;7.838;2022-12-05T07:48:15;101118.53;;;5.77;68.33
29371;BME280;16357;52.188;7.838;2022-12-05T07:50:44;101114.88;;;5.78;67.78
29371;BME280;16357;52.188;7.838;2022-12-05T07:53:11;101116.56;;;5.79;67.82
29371;BME280;16357;52.188;7.838;2022-12-05T07:55:37;101120.22;;;5.78;67.85
29371;BME280;16357;52.188;7.838;2022-12-05T07:58:04;101119.38;;;5.77;67.93
29371;BME280;16357;52.188;7.838;2022-12-05T08:00:30;101120.22;;;5.78;68.11
29371;BME280;16357;52.188;7.838;2022-12-05T08:02:57;101119.38;;;5.77;68.20
29371;BME280;16357;52.188;7.838;2022-12-05T08:05:23;101121.19;;;5.77;67.80
29371;BME280;16357;52.188;7.838;2022-12-05T08:07:49;101118.53;;;5.77;67.99
29371;BME280;16357;52.188;7.838;2022-12-05T08:10:16;101123.84;;;5.77;68.49
29371;BME280;16357;52.188;7.838;2022-12-05T08:12:42;101127.47;;;5.76;67.79
29371;BME280;16357;52.188;7.838;2022-12-05T08:15:09;101127.47;;;5.76;68.08
29371;BME280;16357;52.188;7.838;2022-12-05T08:17:35;101127.38;;;5.77;68.09
29371;BME280;16357;52.188;7.838;2022-12-05T08:20:02;101136.06;;;5.79;68.40
29371;BME280;16357;52.188;7.838;2022-12-05T08:22:28;101126.28;;;5.80;68.03
29371;BME280;16357;52.188;7.838;2022-12-05T08:24:54;101132.31;;;5.82;68.48
29371;BME280;16357;52.188;7.838;2022-12-05T08:27:21;101132.22;;;5.83;68.45
29371;BME280;16357;52.188;7.838;2022-12-05T08:29:54;101135.47;;;5.87;68.08
29371;BME280;16357;52.188;7.838;2022-12-05T08:32:21;101137.19;;;5.88;68.52
29371;BME280;16357;52.188;7.838;2022-12-05T08:34:47;101147.50;;;5.92;68.52
29371;BME280;16357;52.188;7.838;2022-12-05T08:37:14;101142.06;;;5.94;68.21
29371;BME280;16357;52.188;7.838;2022-12-05T08:39:40;101144.50;;;5.97;67.66
29371;BME280;16357;52.188;7.838;2022-12-05T08:42:07;101138.22;;;5.98;68.06
29371;BME280;16357;52.188;7.838;2022-12-05T08:44:33;101146.94;;;6.00;67.86
29371;BME280;16357;52.188;7.838;2022-12-05T08:46:59;101145.00;;;6.02;68.02
29371;BME280;16357;52.188;7.838;2022-12-05T08:49:26;101147.56;;;6.04;67.81
29371;BME280;16357;52.188;7.838;2022-12-05T08:51:53;101148.31;;;6.06;67.58
29371;BME280;16357;52.188;7.838;2022-12-05T08:54:19;101153.50;;;6.07;67.42
29371;BME280;16357;52.188;7.838;2022-12-05T08:56:49;101146.25;;;6.09;67.84
29371;BME280;16357;52.188;7.838;2022-12-05T08:59:17;101153.16;;;6.12;67.67
29371;BME280;16357;52.188;7.838;2022-12-05T09:01:43;101153.03;;;6.13;67.57
29371;BME280;16357;52.188;7.838;2022-12-05T09:04:09;101159.06;;;6.15;67.72
29371;BME280;16357;52.188;7.838;2022-12-05T09:06:38;101160.56;;;6.20;67.44
29371;BME280;16357;52.188;7.838;2022-12-05T09:09:07;101165.63;;;6.23;67.34
29371;BME280;16357;52.188;7.838;2022-12-05T09:11:38;101162.72;;;6.26;67.29
29371;BME280;16357;52.188;7.838;2022-12-05T09:14:06;101170.72;;;6.26;67.26
29371;BME280;16357;52.188;7.838;2022-12-05T09:16:35;101160.72;;;6.29;67.09
29371;BME280;16357;52.188;7.838;2022-12-05T09:19:04;101163.22;;;6.31;66.99
29371;BME280;16357;52.188;7.838;2022-12-05T09:21:32;101167.47;;;6.33;67.17
29371;BME280;16357;52.188;7.838;2022-12-05T09:23:59;101166.38;;;6.36;66.96
29371;BME280;16357;52.188;7.838;2022-12-05T09:26:26;101162.63;;;6.38;66.73
29371;BME280;16357;52.188;7.838;2022-12-05T09:28:53;101169.66;;;6.40;66.63
29371;BME280;16357;52.188;7.838;2022-12-05T09:31:21;101170.41;;;6.42;66.56
29371;BME280;16357;52.188;7.838;2022-12-05T09:33:50;101175.63;;;6.43;66.42
29371;BME280;16357;52.188;7.838;2022-12-05T09:36:25;101176.47;;;6.44;66.52
29371;BME280;16357;52.188;7.838;2022-12-05T09:38:53;101178.16;;;6.45;65.71
29371;BME280;16357;52.188;7.838;2022-12-05T09:41:44;101177.31;;;6.44;65.81
29371;BME280;16357;52.188;7.838;2022-12-05T09:47:19;101178.38;;;6.42;65.88
29371;BME280;16357;52.188;7.838;2022-12-05T09:50:00;101182.03;;;6.41;65.82
29371;BME280;16357;52.188;7.838;2022-12-05T09:52:32;101183.13;;;6.38;65.18
29371;BME280;16357;52.188;7.838;2022-12-05T09:55:10;101175.22;;;6.36;65.27
29371;BME280;16357;52.188;7.838;2022-12-05T09:57:44;101178.03;;;6.35;65.59
29371;BME280;16357;52.188;7.838;2022-12-05T10:00:13;101179.13;;;6.32;65.22
29371;BME280;16357;52.188;7.838;2022-12-05T10:11:22;101176.78;;;6.28;65.22
29371;BME280;16357;52.188;7.838;2022-12-05T10:14:17;101176.91;;;6.26;65.64
29371;BME280;16357;52.188;7.838;2022-12-05T10:16:49;101178.63;;;6.27;65.60
29371;BME280;16357;52.188;7.838;2022-12-05T10:19:28;101173.28;;;6.27;65.65
29371;BME280;16357;52.188;7.838;2022-12-05T10:22:01;101180.19;;;6.30;65.42
29371;BME280;16357;52.188;7.838;2022-12-05T10:24:37;101174.88;;;6.30;65.63
29371;BME280;16357;52.188;7.838;2022-12-05T10:27:09;101173.88;;;6.31;65.27
29371;BME280;16357;52.188;7.838;2022-12-05T10:29:44;101179.13;;;6.32;65.55
29371;BME280;16357;52.188;7.838;2022-12-05T10:32:29;101167.38;;;6.35;65.65
29371;BME280;16357;52.188;7.838;2022-12-05T10:35:22;101171.72;;;6.36;65.06
29371;BME280;16357;52.188;7.838;2022-12-05T10:37:56;101175.13;;;6.38;65.34
29371;BME280;16357;52.188;7.838;2022-12-05T10:40:40;101174.16;;;6.39;65.17
29371;BME280;16357;52.188;7.838;2022-12-05T10:43:11;101171.38;;;6.41;65.03
29371;BME280;16357;52.188;7.838;2022-12-05T10:45:42;101173.06;;;6.42;65.23
29371;BME280;16357;52.188;7.838;2022-12-05T10:48:15;101169.44;;;6.43;64.65
29371;BME280;16357;52.188;7.838;2022-12-05T10:50:44;101163.97;;;6.44;64.80
29371;BME280;16357;52.188;7.838;2022-12-05T10:53:16;101166.63;;;6.44;64.85
29371;BME280;16357;52.188;7.838;2022-12-05T10:55:46;101167.47;;;6.45;64.21
29371;BME280;16357;52.188;7.838;2022-12-05T10:58:33;101161.31;;;6.44;64.32
29371;BME280;16357;52.188;7.838;2022-12-05T11:01:12;101158.78;;;6.43;63.73
29371;BME280;16357;52.188;7.838;2022-12-05T11:03:41;101163.63;;;6.37;63.64
29371;BME280;16357;52.188;7.838;2022-12-05T11:06:17;101158.63;;;6.33;63.84
29371;BME280;16357;52.188;7.838;2022-12-05T11:08:53;101160.81;;;6.28;63.64
29371;BME280;16357;52.188;7.838;2022-12-05T11:11:35;101151.59;;;6.21;63.67
29371;BME280;16357;52.188;7.838;2022-12-05T11:14:23;101146.59;;;6.16;63.72
29371;BME280;16357;52.188;7.838;2022-12-05T11:16:56;101153.25;;;6.10;63.96
29371;BME280;16357;52.188;7.838;2022-12-05T11:19:27;101151.81;;;6.06;64.23
29371;BME280;16357;52.188;7.838;2022-12-05T11:21:54;101148.66;;;6.01;64.06
29371;BME280;16357;52.188;7.838;2022-12-05T11:24:23;101147.91;;;5.99;64.07
29371;BME280;16357;52.188;7.838;2022-12-05T11:26:51;101147.16;;;5.97;64.22
29371;BME280;16357;52.188;7.838;2022-12-05T11:29:35;101144.41;;;5.99;64.54
29371;BME280;16357;52.188;7.838;2022-12-05T11:32:04;101150.56;;;5.99;64.46
29371;BME280;16357;52.188;7.838;2022-12-05T11:34:43;101143.31;;;6.01;65.08
29371;BME280;16357;52.188;7.838;2022-12-05T11:37:19;101145.75;;;6.04;64.80
29371;BME280;16357;52.188;7.838;2022-12-05T11:39:47;101137.75;;;6.04;64.46
29371;BME280;16357;52.188;7.838;2022-12-05T11:42:48;101141.16;;;6.06;64.41
29371;BME280;16357;52.188;7.838;2022-12-05T11:45:15;101142.00;;;6.07;64.65
29371;BME280;16357;52.188;7.838;2022-12-05T11:48:16;101141.00;;;6.08;64.65
29371;BME280;16357;52.188;7.838;2022-12-05T11:51:16;101134.84;;;6.07;64.64
29371;BME280;16357;52.188;7.838;2022-12-05T12:00:22;101130.25;;;6.09;64.80
29371;BME280;16357;52.188;7.838;2022-12-05T12:06:14;101132.31;;;6.06;64.77
29371;BME280;16357;52.188;7.838;2022-12-05T12:09:05;101131.44;;;6.05;64.52
29371;BME280;16357;52.188;7.838;2022-12-05T12:11:53;101136.91;;;6.04;64.64
29371;BME280;16357;52.188;7.838;2022-12-05T12:30:56;101125.53;;;6.13;64.86
29371;BME280;16357;52.188;7.838;2022-12-05T12:33:35;101120.84;;;6.17;65.03
29371;BME280;16357;52.188;7.838;2022-12-05T12:39:30;101131.50;;;6.17;64.19
29371;BME280;16357;52.188;7.838;2022-12-05T12:42:22;101128.94;;;6.15;63.65
29371;BME280;16357;52.188;7.838;2022-12-05T12:47:35;101124.09;;;6.09;63.65
29371;BME280;16357;52.188;7.838;2022-12-05T12:50:25;101123.59;;;6.04;63.47
29371;BME280;16357;52.188;7.838;2022-12-05T12:55:45;101125.88;;;5.97;63.99
29371;BME280;16357;52.188;7.838;2022-12-05T13:03:48;101116.00;;;5.86;63.99
29371;BME280;16357;52.188;7.838;2022-12-05T13:06:23;101118.78;;;5.85;64.12
29371;BME280;16357;52.188;7.838;2022-12-05T13:09:55;101109.94;;;5.84;64.37
29371;BME280;16357;52.188;7.838;2022-12-05T13:11:50;101116.13;;;5.85;64.28
29371;BME280;16357;52.188;7.838;2022-12-05T13:14:21;101113.47;;;5.85;64.41
29371;BME280;16357;52.188;7.838;2022-12-05T13:16:51;101116.13;;;5.85;63.86
29371;BME280;16357;52.188;7.838;2022-12-05T13:19:57;101122.16;;;5.87;64.59
29371;BME280;16357;52.188;7.838;2022-12-05T13:22:16;101114.81;;;5.90;64.38
29371;BME280;16357;52.188;7.838;2022-12-05T13:24:44;101113.97;;;5.90;63.85
29371;BME280;16357;52.188;7.838;2022-12-05T13:27:19;101110.44;;;5.89;64.02
29371;BME280;16357;52.188;7.838;2022-12-05T13:32:34;101112.25;;;5.89;64.02
29371;BME280;16357;52.188;7.838;2022-12-05T13:37:33;101117.81;;;5.86;64.13
29371;BME280;16357;52.188;7.838;2022-12-05T13:40:23;101116.13;;;5.85;63.98
29371;BME280;16357;52.188;7.838;2022-12-05T13:43:10;101125.06;;;5.84;64.01
29371;BME280;16357;52.188;7.838;2022-12-05T13:45:38;101123.38;;;5.83;64.02
29371;BME280;16357;52.188;7.838;2022-12-05T13:48:13;101124.13;;;5.85;64.30
29371;BME280;16357;52.188;7.838;2022-12-05T13:50:50;101127.63;;;5.85;64.46
29371;BME280;16357;52.188;7.838;2022-12-05T13:58:45;101124.81;;;5.87;64.44
29371;BME280;16357;52.188;7.838;2022-12-05T14:26:01;101124.38;;;5.93;64.03
29371;BME280;16357;52.188;7.838;2022-12-05T14:28:48;101126.19;;;5.92;63.75
29371;BME280;16357;52.188;7.838;2022-12-05T14:39:32;101110.44;;;5.89;63.94
29371;BME280;16357;52.188;7.838;2022-12-05T14:42:02;101120.25;;;5.89;63.83
29371;BME280;16357;52.188;7.838;2022-12-05T14:44:30;101121.22;;;5.88;63.97
29371;BME280;16357;52.188;7.838;2022-12-05T14:47:02;101125.69;;;5.87;63.47
29371;BME280;16357;52.188;7.838;2022-12-05T14:49:56;101121.22;;;5.88;63.91
29371;BME280;16357;52.188;7.838;2022-12-05T14:52:33;101131.88;;;5.88;63.89
29371;BME280;16357;52.188;7.838;2022-12-05T14:55:09;101121.22;;;5.88;63.79
29371;BME280;16357;52.188;7.838;2022-12-05T14:57:45;101125.81;;;5.86;63.93
29371;BME280;16357;52.188;7.838;2022-12-05T15:00:21;101122.31;;;5.85;63.46
29371;BME280;16357;52.188;7.838;2022-12-05T15:02:50;101118.78;;;5.85;63.65
29371;BME280;16357;52.188;7.838;2022-12-05T15:05:25;101113.56;;;5.83;63.28
29371;BME280;16357;52.188;7.838;2022-12-05T15:07:53;101119.97;;;5.81;63.52
29371;BME280;16357;52.188;7.838;2022-12-05T15:10:27;101120.97;;;5.80;63.59
29371;BME280;16357;52.188;7.838;2022-12-05T15:12:59;101124.69;;;5.77;63.66
29371;BME280;16357;52.188;7.838;2022-12-05T15:18:30;101124.94;;;5.74;63.97
29371;BME280;16357;52.188;7.838;2022-12-05T15:21:15;101128.53;;;5.73;63.97
29371;BME280;16357;52.188;7.838;2022-12-05T15:23:44;101136.66;;;5.71;63.90
29371;BME280;16357;52.188;7.838;2022-12-05T15:26:21;101136.66;;;5.71;63.97
29371;BME280;16357;52.188;7.838;2022-12-05T15:29:12;101140.16;;;5.72;63.97
29371;BME280;16357;52.188;7.838;2022-12-05T15:31:47;101139.31;;;5.71;63.92
29371;BME280;16357;52.188;7.838;2022-12-05T15:34:34;101141.13;;;5.71;63.96
29371;BME280;16357;52.188;7.838;2022-12-05T15:37:25;101147.31;;;5.71;63.62